Terminal Aerodrome Forecast
Issued by NWS

Home | Current Version | Previous Version | Graphics & Text | Print | Product List | Glossary On
Versions: 1 2 3 4 5 6 7 8 9 10 11 12 13 14 15 16 17 18 19
000
FTUS44 KLZK 250520
TAFLIT
TAF
KLIT 250520Z 2506/2606 05004KT P6SM VCSH BKN120
     FM250800 02003KT P6SM SCT100 BKN250
     FM251400 06006KT P6SM SCT100 SCT250
     FM252300 VRB04KT P6SM SCT250=

USA.gov is the U.S. government's official web portal to all federal, state and local government web resources and services.